Time;durP1;ratioP1;P1;durP2;ratioP2;P2;SDS_P1;SDS_P2;PMS_P1;PMS_P2;Temp;Humidity;BMP_temperature;BMP_pressure;BME280_temperature;BME280_humidity;BME280_pressure;Samples;Min_cycle;Max_cycle;Signal;HPM_P1;HPM_P2
2023/09/15 00:01:36;;;;;;;8.83;3.37;;;;;;;18.26;100.00;100454.37;1429149;91;21382;-78
2023/09/15 00:04:05;;;;;;;4.33;2.50;;;;;;;18.28;100.00;100456.88;1417597;91;21508;-78
2023/09/15 00:06:35;;;;;;;3.15;2.85;;;;;;;18.28;100.00;100456.88;1423332;91;21448;-78
2023/09/15 00:09:14;;;;;;;6.08;3.15;;;;;;;18.27;100.00;100456.05;1430325;91;21603;-77
2023/09/15 00:11:42;;;;;;;6.40;2.60;;;;;;;18.25;100.00;100460.26;1419566;91;22514;-76
2023/09/15 00:14:14;;;;;;;5.37;2.85;;;;;;;18.24;100.00;100457.76;1425379;91;21509;-77
2023/09/15 00:16:44;;;;;;;7.83;3.98;;;;;;;18.25;100.00;100460.26;1427186;91;21648;-78
2023/09/15 00:19:13;;;;;;;6.17;3.10;;;;;;;18.23;100.00;100464.16;1423572;91;21466;-77
2023/09/15 00:21:43;;;;;;;3.92;3.37;;;;;;;18.24;100.00;100463.11;1428143;91;21383;-77
2023/09/15 00:24:09;;;;;;;6.40;3.45;;;;;;;18.21;100.00;100467.53;1423804;91;21604;-76
2023/09/15 00:26:37;;;;;;;5.05;3.35;;;;;;;18.18;100.00;100468.78;1426287;91;21487;-77
2023/09/15 00:29:04;;;;;;;7.58;3.87;;;;;;;18.23;100.00;100466.83;1404608;91;21604;-77
2023/09/15 00:31:31;;;;;;;4.42;3.33;;;;;;;18.24;100.00;100467.13;1428004;91;21449;-77
2023/09/15 00:33:58;;;;;;;3.95;3.15;;;;;;;18.21;100.00;100468.87;1429952;91;22335;-77
2023/09/15 00:36:24;;;;;;;8.00;4.00;;;;;;;18.20;100.00;100465.88;1426593;91;21442;-77
2023/09/15 00:38:50;;;;;;;4.72;2.80;;;;;;;18.17;100.00;100471.64;1428128;91;21612;-76
2023/09/15 00:41:18;;;;;;;4.17;3.15;;;;;;;18.22;100.00;100475.91;1422663;91;21412;-76
2023/09/15 00:43:44;;;;;;;5.95;3.30;;;;;;;18.21;100.00;100471.55;1419018;91;21391;-76
2023/09/15 00:46:12;;;;;;;5.60;3.47;;;;;;;18.17;100.00;100477.81;1425364;91;21456;-78
2023/09/15 00:48:39;;;;;;;6.37;3.52;;;;;;;18.23;100.00;100481.56;1421990;91;21390;-78
2023/09/15 00:51:07;;;;;;;3.80;3.02;;;;;;;18.22;100.00;100481.26;1409187;91;21382;-78
2023/09/15 00:53:36;;;;;;;5.72;3.52;;;;;;;18.23;100.00;100478.89;1424360;91;21450;-76
2023/09/15 00:56:03;;;;;;;4.25;3.37;;;;;;;18.24;100.00;100476.52;1430610;91;21501;-77
2023/09/15 00:58:31;;;;;;;6.35;3.75;;;;;;;18.23;100.00;100483.72;1432645;91;21856;-76
2023/09/15 01:00:58;;;;;;;7.00;3.05;;;;;;;18.22;100.00;100486.61;1428899;91;21397;-75
2023/09/15 01:03:26;;;;;;;4.65;3.40;;;;;;;18.17;100.00;100483.17;1428224;91;21575;-76
2023/09/15 01:05:53;;;;;;;3.35;2.87;;;;;;;18.21;100.00;100483.12;1429850;91;21405;-75
2023/09/15 01:08:19;;;;;;;7.03;4.35;;;;;;;18.22;100.00;100483.94;1427575;91;21353;-76
2023/09/15 01:10:46;;;;;;;4.10;2.55;;;;;;;18.21;100.00;100482.27;1423280;91;21308;-76
2023/09/15 01:13:12;;;;;;;4.80;2.77;;;;;;;18.20;100.00;100489.99;1425942;91;21324;-76
2023/09/15 01:16:12;;;;;;;5.60;3.80;;;;;;;18.18;100.00;100482.66;1433377;91;22314;-76
2023/09/15 01:19:06;;;;;;;4.47;3.42;;;;;;;18.14;100.00;100484.08;1423726;91;22381;-76
2023/09/15 01:21:49;;;;;;;5.00;3.25;;;;;;;18.18;100.00;100478.64;1427224;91;21412;-77
2023/09/15 01:24:27;;;;;;;8.93;3.02;;;;;;;18.17;100.00;100485.85;1386131;94;21635;-78
2023/09/15 01:27:37;;;;;;;4.05;3.37;;;;;;;18.20;100.00;100489.48;1428014;91;21411;-77
2023/09/15 01:30:05;;;;;;;7.85;3.70;;;;;;;18.20;100.00;100484.13;1397344;92;22589;-77
2023/09/15 01:32:34;;;;;;;5.33;4.00;;;;;;;18.17;100.00;100489.05;1404292;92;21399;-78
2023/09/15 01:35:04;;;;;;;6.03;2.75;;;;;;;18.18;100.00;100489.35;1398870;91;21636;-77
2023/09/15 01:37:31;;;;;;;8.53;2.80;;;;;;;18.14;100.00;100496.14;1398502;91;21441;-77
2023/09/15 01:39:59;;;;;;;6.03;2.85;;;;;;;18.14;100.00;100496.14;1424770;91;21331;-78
2023/09/15 01:42:26;;;;;;;4.65;3.67;;;;;;;18.12;100.00;100492.81;1432566;91;21433;-78
2023/09/15 01:44:54;;;;;;;6.22;3.00;;;;;;;18.11;100.00;100489.31;1428478;91;21643;-77
2023/09/15 01:47:24;;;;;;;5.65;3.30;;;;;;;18.15;100.00;100493.77;1418885;91;21404;-78
2023/09/15 01:49:52;;;;;;;3.53;3.07;;;;;;;18.15;100.00;100492.42;1422515;91;21368;-78
2023/09/15 01:52:21;;;;;;;10.15;3.70;;;;;;;18.12;100.00;100496.84;1426457;91;21551;-77
2023/09/15 01:54:51;;;;;;;4.00;3.10;;;;;;;18.07;100.00;100495.25;1431632;91;22351;-76
2023/09/15 01:57:17;;;;;;;3.77;2.90;;;;;;;18.08;100.00;100494.24;1420713;91;21537;-77
2023/09/15 01:59:44;;;;;;;5.33;3.83;;;;;;;18.10;100.00;100496.23;1427133;91;21880;-77
2023/09/15 02:02:10;;;;;;;7.80;3.45;;;;;;;18.07;100.00;100500.60;1427055;91;21515;-77
2023/09/15 02:04:38;;;;;;;6.35;3.37;;;;;;;18.12;100.00;100503.53;1417197;91;21427;-76
2023/09/15 02:07:04;;;;;;;7.22;3.58;;;;;;;18.11;100.00;100496.53;1422478;91;21619;-77
2023/09/15 02:09:30;;;;;;;5.42;3.37;;;;;;;18.09;100.00;100506.59;1431657;91;21397;-77
2023/09/15 02:11:56;;;;;;;4.47;3.00;;;;;;;18.07;100.00;100503.28;1428675;91;22357;-77
2023/09/15 02:14:25;;;;;;;6.10;3.58;;;;;;;18.09;100.00;100511.95;1428676;91;21464;-77
2023/09/15 02:16:51;;;;;;;6.03;2.98;;;;;;;18.10;100.00;100512.30;1431910;91;21375;-77
2023/09/15 02:19:18;;;;;;;8.13;4.45;;;;;;;18.10;100.00;100507.77;1426340;91;21369;-77
2023/09/15 02:21:45;;;;;;;4.55;3.20;;;;;;;18.08;100.00;100510.31;1428414;91;21390;-78
2023/09/15 02:24:11;;;;;;;4.10;3.05;;;;;;;18.03;100.00;100513.56;1432498;91;22337;-77
2023/09/15 02:26:39;;;;;;;7.10;3.22;;;;;;;18.13;100.00;100519.94;1424460;91;21339;-77
2023/09/15 02:29:06;;;;;;;6.50;3.55;;;;;;;18.11;100.00;100515.28;1423252;91;22374;-78
2023/09/15 02:31:32;;;;;;;6.60;3.12;;;;;;;18.08;100.00;100519.69;1406373;91;21442;-77
2023/09/15 02:33:59;;;;;;;10.13;4.17;;;;;;;18.11;100.00;100513.94;1424931;91;21530;-78
2023/09/15 02:36:27;;;;;;;4.30;2.60;;;;;;;18.00;100.00;100517.97;1427848;91;21500;-78
2023/09/15 02:38:54;;;;;;;4.97;2.77;;;;;;;18.03;100.00;100514.38;1426009;91;21471;-78
2023/09/15 02:41:21;;;;;;;3.65;3.30;;;;;;;18.01;100.00;100510.23;1420853;91;22387;-76
2023/09/15 02:43:48;;;;;;;7.35;3.67;;;;;;;18.00;100.00;100520.64;1417831;91;21426;-76
2023/09/15 02:46:14;;;;;;;14.80;3.65;;;;;;;18.02;100.00;100519.95;1421690;91;21390;-77
2023/09/15 02:48:42;;;;;;;3.33;3.02;;;;;;;18.03;100.00;100517.06;1427746;91;21397;-78
2023/09/15 02:51:09;;;;;;;7.15;4.05;;;;;;;18.06;100.00;100523.88;1433291;91;22381;-78
2023/09/15 02:54:15;;;;;;;5.55;3.85;;;;;;;18.07;100.00;100528.72;1437006;91;21453;-79
2023/09/15 02:56:41;;;;;;;3.45;3.15;;;;;;;18.02;100.00;100529.32;1423401;91;21613;-76
2023/09/15 02:59:07;;;;;;;3.75;3.25;;;;;;;17.98;100.00;100526.21;1405957;91;21828;-76
2023/09/15 03:01:36;;;;;;;5.28;3.72;;;;;;;17.98;100.00;100528.89;1427341;91;21412;-76
2023/09/15 03:04:03;;;;;;;3.22;2.92;;;;;;;17.97;100.00;100525.88;1426453;91;21419;-76
2023/09/15 03:06:30;;;;;;;6.55;3.17;;;;;;;18.02;100.00;100524.79;1419194;91;22625;-78
2023/09/15 03:08:56;;;;;;;6.20;3.92;;;;;;;17.97;100.00;100532.56;1427203;91;21426;-76
2023/09/15 03:11:22;;;;;;;4.85;3.42;;;;;;;17.95;100.00;100533.30;1406906;91;21463;-76
2023/09/15 03:13:48;;;;;;;10.98;3.08;;;;;;;17.98;100.00;100532.91;1417428;91;22174;-76
2023/09/15 03:16:14;;;;;;;4.05;2.90;;;;;;;17.97;100.00;100533.09;1427453;91;21391;-77
2023/09/15 03:18:42;;;;;;;4.83;3.30;;;;;;;17.99;100.00;100533.21;1428341;91;21391;-76
2023/09/15 03:21:08;;;;;;;4.62;2.90;;;;;;;18.00;100.00;100538.05;1420125;91;21560;-76
2023/09/15 03:23:35;;;;;;;7.00;3.27;;;;;;;18.00;100.00;100536.20;1421608;91;22284;-76
2023/09/15 03:26:03;;;;;;;5.22;2.95;;;;;;;17.99;100.00;100541.25;1428538;91;21918;-76
2023/09/15 03:28:35;;;;;;;8.13;3.92;;;;;;;17.98;100.00;100542.77;1429680;91;21418;-76
2023/09/15 03:31:05;;;;;;;4.47;3.37;;;;;;;17.94;100.00;100550.36;1426782;91;22438;-76
2023/09/15 03:33:32;;;;;;;;;;;;;;;17.94;100.00;100550.36;1434171;91;21537;-78
2023/09/15 03:36:00;;;;;;;10.53;3.65;;;;;;;17.90;100.00;100550.95;1428296;91;20230;-78
2023/09/15 03:38:26;;;;;;;3.67;3.05;;;;;;;17.89;100.00;100558.65;1423846;91;22425;-78
2023/09/15 03:40:52;;;;;;;10.18;3.25;;;;;;;17.89;100.00;100546.61;1419441;91;21412;-78
2023/09/15 03:43:18;;;;;;;5.28;3.00;;;;;;;17.85;100.00;100554.20;1426820;91;22314;-78
2023/09/15 03:45:47;;;;;;;10.15;4.35;;;;;;;17.83;100.00;100555.41;1420017;91;21442;-78
2023/09/15 03:48:14;;;;;;;6.60;3.02;;;;;;;17.77;100.00;100556.97;1423735;91;21426;-78
2023/09/15 03:50:40;;;;;;;5.67;3.35;;;;;;;17.76;100.00;100560.68;1424396;91;22358;-78
2023/09/15 03:53:07;;;;;;;6.30;3.08;;;;;;;17.70;100.00;100560.93;1425381;91;21398;-77
2023/09/15 03:55:33;;;;;;;3.33;2.95;;;;;;;17.71;100.00;100569.78;1423890;91;21570;-78
2023/09/15 03:57:59;;;;;;;5.60;3.10;;;;;;;17.70;100.00;100572.97;1430454;91;22256;-76
2023/09/15 04:00:26;;;;;;;3.72;3.02;;;;;;;17.65;100.00;100573.22;1427535;91;21324;-76
2023/09/15 04:02:53;;;;;;;6.33;4.35;;;;;;;17.65;100.00;100571.89;1435072;91;21448;-76
2023/09/15 04:05:19;;;;;;;5.97;2.83;;;;;;;17.60;100.00;100573.78;1429153;91;21428;-76
2023/09/15 04:07:46;;;;;;;16.90;4.45;;;;;;;17.54;100.00;100578.05;1421813;91;21552;-76
2023/09/15 04:10:13;;;;;;;7.58;3.62;;;;;;;17.44;100.00;100580.22;1420249;91;21404;-76
2023/09/15 04:12:41;;;;;;;9.33;3.85;;;;;;;17.37;100.00;100594.01;1428987;91;21449;-77
2023/09/15 04:15:11;;;;;;;13.88;4.62;;;;;;;17.24;100.00;100596.55;1425396;91;21508;-77
2023/09/15 04:17:38;;;;;;;3.60;3.30;;;;;;;17.13;100.00;100595.98;1430701;91;21599;-77
2023/09/15 04:20:09;;;;;;;7.87;3.67;;;;;;;17.04;100.00;100598.45;1415192;91;21359;-77
2023/09/15 04:22:37;;;;;;;5.87;3.80;;;;;;;16.97;100.00;100600.19;1425320;91;21611;-76
2023/09/15 04:25:04;;;;;;;5.37;3.62;;;;;;;16.86;100.00;100602.84;1435845;91;22218;-79
2023/09/15 04:27:34;;;;;;;16.10;4.23;;;;;;;16.83;100.00;100610.37;1427089;91;21405;-79
2023/09/15 04:30:02;;;;;;;7.40;4.27;;;;;;;16.78;100.00;100604.77;1396036;91;21478;-77
2023/09/15 04:32:29;;;;;;;4.17;3.30;;;;;;;16.74;100.00;100606.11;1428901;91;21832;-77
2023/09/15 04:34:55;;;;;;;16.40;4.73;;;;;;;16.69;100.00;100607.50;1421880;91;21390;-77
2023/09/15 04:37:22;;;;;;;4.70;3.10;;;;;;;16.66;100.00;100609.72;1436553;91;21428;-78
2023/09/15 04:39:49;;;;;;;7.23;3.80;;;;;;;16.61;100.00;100608.09;1430038;91;21494;-77
2023/09/15 04:42:16;;;;;;;7.63;3.63;;;;;;;16.55;100.00;100610.98;1422644;91;21441;-79
2023/09/15 04:44:43;;;;;;;5.13;3.97;;;;;;;16.52;100.00;100611.34;1409092;91;22359;-79
2023/09/15 04:47:12;;;;;;;7.30;2.77;;;;;;;16.58;100.00;100611.13;1431032;91;21486;-80
2023/09/15 04:49:38;;;;;;;7.70;3.53;;;;;;;16.57;100.00;100624.14;1436441;91;21338;-81
2023/09/15 04:52:05;;;;;;;7.90;3.73;;;;;;;16.54;100.00;100619.98;1423100;91;22464;-80
2023/09/15 04:54:32;;;;;;;3.77;2.73;;;;;;;16.53;100.00;100622.86;1418359;91;21405;-79
2023/09/15 04:56:58;;;;;;;6.70;3.40;;;;;;;16.52;100.00;100618.03;1429408;91;21533;-77
2023/09/15 04:59:25;;;;;;;3.77;3.03;;;;;;;16.57;100.00;100624.14;1436497;91;21510;-75
2023/09/15 05:01:51;;;;;;;3.80;3.03;;;;;;;16.57;100.00;100630.34;1433543;91;21420;-75
2023/09/15 05:04:20;;;;;;;4.00;3.53;;;;;;;16.55;100.00;100623.00;1431576;91;21623;-79
2023/09/15 05:06:46;;;;;;;6.73;3.40;;;;;;;16.49;100.00;100625.07;1426596;91;22463;-79
2023/09/15 05:09:18;;;;;;;7.10;3.53;;;;;;;16.50;100.00;100624.05;1422699;91;21449;-78
2023/09/15 05:11:43;;;;;;;8.00;2.80;;;;;;;16.48;100.00;100624.73;1436502;91;21463;-80
2023/09/15 05:14:09;;;;;;;4.17;3.10;;;;;;;16.44;100.00;100626.11;1427229;91;21574;-78
2023/09/15 05:16:35;;;;;;;4.30;2.57;;;;;;;16.44;100.00;100622.11;1393580;91;21383;-79
2023/09/15 05:19:01;;;;;;;7.80;3.47;;;;;;;16.42;100.00;100629.46;1426104;91;21413;-79
2023/09/15 05:21:27;;;;;;;5.50;3.27;;;;;;;16.42;100.00;100625.45;1427137;91;22270;-78
2023/09/15 05:23:53;;;;;;;4.03;2.83;;;;;;;16.40;100.00;100632.81;1430294;91;21339;-79
2023/09/15 05:26:20;;;;;;;7.10;2.73;;;;;;;16.40;100.00;100631.47;1427840;91;21463;-80
2023/09/15 05:28:46;;;;;;;4.23;3.03;;;;;;;16.40;100.00;100627.47;1432833;91;21583;-79
2023/09/15 05:31:12;;;;;;;3.80;2.70;;;;;;;16.41;100.00;100631.30;1426402;91;21842;-79
2023/09/15 05:33:38;;;;;;;3.30;2.43;;;;;;;16.45;100.00;100634.44;1423541;91;21492;-81
2023/09/15 05:36:05;;;;;;;3.47;2.63;;;;;;;16.49;100.00;100634.42;1429478;91;22298;-80
2023/09/15 05:38:31;;;;;;;7.47;2.60;;;;;;;16.49;100.00;100641.09;1428477;91;21412;-79
2023/09/15 05:40:57;;;;;;;7.40;2.70;;;;;;;16.56;100.00;100641.20;1428913;91;21478;-78
2023/09/15 05:43:23;;;;;;;4.33;2.80;;;;;;;16.61;100.00;100644.98;1426400;91;21271;-79
2023/09/15 05:45:49;;;;;;;3.90;2.43;;;;;;;16.65;100.00;100646.27;1410448;91;21500;-78
2023/09/15 05:52:14;;;;;;;3.80;3.07;;;;;;;16.67;100.00;100641.58;1505684;91;21221;-79
2023/09/15 05:54:40;;;;;;;3.90;2.93;;;;;;;16.66;100.00;100644.45;1361063;91;21316;-79
2023/09/15 05:57:07;;;;;;;4.97;2.40;;;;;;;16.66;100.00;100643.94;1505674;91;21206;-80
2023/09/15 05:59:33;;;;;;;3.13;2.13;;;;;;;16.68;100.00;100652.59;1355375;91;21339;-78
2023/09/15 06:02:02;;;;;;;2.50;2.10;;;;;;;16.70;100.00;100646.56;1355582;91;21353;-79
2023/09/15 06:04:28;;;;;;;3.53;2.33;;;;;;;16.72;100.00;100652.25;1360758;91;21541;-78
2023/09/15 06:06:54;;;;;;;10.82;2.33;;;;;;;16.72;100.00;100654.92;1500635;91;21199;-78
2023/09/15 06:09:20;;;;;;;8.63;2.50;;;;;;;16.69;100.00;100650.25;1360911;91;21419;-79
2023/09/15 06:11:47;;;;;;;5.37;2.10;;;;;;;16.69;100.00;100656.94;1355326;91;22168;-78
2023/09/15 06:14:13;;;;;;;6.23;2.30;;;;;;;16.72;100.00;100653.08;1361280;91;22282;-78
2023/09/15 06:16:39;;;;;;;4.67;2.40;;;;;;;16.75;100.00;100659.90;1355470;91;21250;-77
2023/09/15 06:19:06;;;;;;;3.67;2.07;;;;;;;16.78;100.00;100660.91;1478348;91;21286;-77
2023/09/15 06:21:32;;;;;;;5.40;2.23;;;;;;;16.79;100.00;100660.70;1355145;91;21279;-79
2023/09/15 06:23:59;;;;;;;8.30;2.97;;;;;;;16.80;100.00;100662.38;1360755;91;21439;-79
2023/09/15 06:26:25;;;;;;;4.70;2.17;;;;;;;16.79;100.00;100665.22;1482384;91;21168;-79
2023/09/15 06:28:51;;;;;;;8.63;2.70;;;;;;;16.81;100.00;100668.55;1355577;91;21271;-78
2023/09/15 06:31:18;;;;;;;5.27;2.37;;;;;;;16.84;100.00;100669.01;1354864;91;21346;-79
2023/09/15 06:33:45;;;;;;;3.87;2.70;;;;;;;16.86;100.00;100663.47;1388724;91;21426;-82
2023/09/15 06:36:12;;;;;;;4.30;2.80;;;;;;;16.89;100.00;100667.96;1421321;91;22270;-84
2023/09/15 06:38:38;;;;;;;5.17;3.03;;;;;;;16.92;100.00;100662.77;1429117;91;21367;-83
2023/09/15 06:41:04;;;;;;;9.13;2.37;;;;;;;16.89;100.00;100668.48;1423444;91;21537;-85
2023/09/15 06:43:30;;;;;;;5.37;2.80;;;;;;;16.93;100.00;100667.59;1404244;91;22393;-85
2023/09/15 06:45:57;;;;;;;5.43;3.03;;;;;;;16.93;100.00;100664.41;1419217;91;21375;-84
2023/09/15 06:48:23;;;;;;;3.13;2.37;;;;;;;16.97;100.00;100668.88;1401368;91;21523;-86
2023/09/15 06:50:49;;;;;;;5.07;2.83;;;;;;;17.00;100.00;100673.34;1425688;91;21309;-84
2023/09/15 06:53:15;;;;;;;3.77;2.50;;;;;;;17.06;100.00;100666.43;1425317;91;21397;-87
2023/09/15 06:55:41;;;;;;;8.55;2.25;;;;;;;17.05;100.00;100665.61;1421460;91;21360;-85
2023/09/15 06:58:08;;;;;;;3.03;2.07;;;;;;;17.06;100.00;100666.43;1431206;91;21479;-84
2023/09/15 07:00:34;;;;;;;5.43;1.97;;;;;;;17.10;100.00;100664.55;1434914;91;21287;-85
2023/09/15 07:03:00;;;;;;;3.33;2.22;;;;;;;17.13;100.00;100670.87;1421585;91;21960;-86
2023/09/15 07:05:26;;;;;;;2.65;1.95;;;;;;;17.12;100.00;100674.57;1430362;91;21497;-85
2023/09/15 07:07:52;;;;;;;4.63;2.17;;;;;;;17.10;100.00;100671.23;1414534;91;22366;-87
2023/09/15 07:10:18;;;;;;;3.87;2.25;;;;;;;17.20;100.00;100672.80;1420041;91;21471;-85
2023/09/15 07:12:45;;;;;;;3.70;2.33;;;;;;;17.21;100.00;100675.81;1428291;91;21597;-84
2023/09/15 07:15:13;;;;;;;6.70;1.90;;;;;;;17.18;100.00;100678.35;1428055;91;21389;-88
2023/09/15 07:17:39;;;;;;;2.62;1.87;;;;;;;17.22;100.00;100682.30;1431579;91;21530;-84
2023/09/15 07:20:07;;;;;;;2.20;1.87;;;;;;;17.28;100.00;100675.38;1429044;91;21330;-83
2023/09/15 07:22:33;;;;;;;3.50;2.33;;;;;;;17.27;100.00;100683.09;1422430;91;22290;-84
2023/09/15 07:24:59;;;;;;;4.97;1.50;;;;;;;17.36;100.00;100681.98;1401541;91;21353;-86
2023/09/15 07:27:25;;;;;;;2.72;1.67;;;;;;;17.33;100.00;100682.35;1428064;91;21471;-85
2023/09/15 07:29:51;;;;;;;6.62;1.77;;;;;;;17.37;100.00;100683.63;1429919;91;21530;-85
2023/09/15 07:32:18;;;;;;;3.05;1.75;;;;;;;17.45;100.00;100683.53;1421697;91;21515;-83
2023/09/15 07:34:44;;;;;;;3.92;1.67;;;;;;;17.52;100.00;100687.14;1425781;91;21588;-84
2023/09/15 07:37:11;;;;;;;4.78;1.98;;;;;;;17.57;100.00;100684.70;1429892;91;22232;-82
2023/09/15 07:39:37;;;;;;;2.00;1.60;;;;;;;17.68;100.00;100689.27;1421749;91;22166;-85
2023/09/15 07:42:07;;;;;;;3.05;1.70;;;;;;;17.69;100.00;100696.27;1429287;91;21382;-84
2023/09/15 07:44:32;;;;;;;3.87;1.60;;;;;;;17.72;100.00;100690.55;1423514;91;21434;-86
2023/09/15 07:46:58;;;;;;;3.67;2.10;;;;;;;17.80;100.00;100702.52;1422685;91;22374;-85
2023/09/15 07:49:24;;;;;;;2.20;1.72;;;;;;;17.76;100.00;100705.23;1431455;91;21360;-85
2023/09/15 07:51:51;;;;;;;5.12;1.70;;;;;;;17.81;100.00;100702.34;1422944;91;21360;-84
2023/09/15 07:54:19;;;;;;;7.65;2.30;;;;;;;17.89;100.00;100705.39;1423021;91;21383;-85
2023/09/15 07:56:45;;;;;;;4.33;1.32;;;;;;;17.89;100.00;100705.91;1425072;91;21526;-87
2023/09/15 07:59:13;;;;;;;2.20;1.22;;;;;;;17.99;100.00;100704.59;1431699;91;21435;-83
2023/09/15 08:01:39;;;;;;;2.83;1.82;;;;;;;18.02;100.00;100712.77;1423999;91;21953;-82
2023/09/15 08:04:05;;;;;;;6.12;1.50;;;;;;;18.11;100.00;100716.98;1403755;91;21428;-85
2023/09/15 08:06:32;;;;;;;5.78;1.47;;;;;;;18.14;100.00;100709.08;1421691;91;21540;-85
2023/09/15 08:08:58;;;;;;;1.98;1.62;;;;;;;18.17;100.00;100704.67;1429759;91;21450;-85
2023/09/15 08:11:24;;;;;;;4.20;1.92;;;;;;;18.31;100.00;100713.16;1421359;91;22262;-86
2023/09/15 08:13:50;;;;;;;1.80;1.02;;;;;;;18.44;100.00;100715.98;1405856;91;21541;-85
2023/09/15 08:16:16;;;;;;;3.47;2.02;;;;;;;18.54;100.00;100710.28;1420130;91;21450;-85
2023/09/15 08:18:43;;;;;;;3.30;1.60;;;;;;;18.60;100.00;100715.38;1430065;91;21598;-85
2023/09/15 08:21:09;;;;;;;5.50;1.60;;;;;;;18.73;100.00;100718.19;1429389;91;21433;-85
2023/09/15 08:23:35;;;;;;;2.30;1.40;;;;;;;18.79;100.00;100721.46;1432802;91;21361;-88
2023/09/15 08:26:02;;;;;;;1.92;1.10;;;;;;;18.79;100.00;100725.48;1435553;91;22291;-88
2023/09/15 08:28:28;;;;;;;1.72;0.85;;;;;;;18.83;100.00;100728.08;1409448;91;21390;-87
2023/09/15 08:30:54;;;;;;;1.82;1.70;;;;;;;18.75;100.00;100728.73;1435183;91;21413;-88
2023/09/15 08:33:20;;;;;;;5.28;1.40;;;;;;;18.73;100.00;100726.23;1403200;91;22439;-89
2023/09/15 08:35:46;;;;;;;4.12;1.87;;;;;;;18.69;100.00;100719.58;1423052;91;21449;-86
2023/09/15 08:38:13;;;;;;;7.95;1.40;;;;;;;18.58;100.00;100726.80;1410138;91;21418;-86
2023/09/15 08:40:53;;;;;;;6.47;2.25;;;;;;;18.54;100.00;100727.70;1431492;91;21367;-86
2023/09/15 08:43:19;;;;;;;2.90;1.40;;;;;;;18.39;100.00;100727.78;1408266;91;21361;-87
2023/09/15 08:45:47;;;;;;;1.87;1.50;;;;;;;18.38;100.00;100733.31;1429664;91;21544;-87
2023/09/15 08:48:19;;;;;;;1.75;1.20;;;;;;;18.34;100.00;100728.85;1404951;91;21390;-88
2023/09/15 08:50:46;;;;;;;7.03;1.20;;;;;;;18.35;100.00;100729.16;1425518;91;22321;-86
2023/09/15 08:53:13;;;;;;;5.28;1.45;;;;;;;18.41;100.00;100727.08;1427496;91;21567;-87
2023/09/15 08:55:40;;;;;;;4.67;1.75;;;;;;;18.51;100.00;100731.28;1434632;91;21382;-87
2023/09/15 08:58:08;;;;;;;3.30;1.40;;;;;;;18.55;100.00;100735.23;1421487;91;21552;-86
2023/09/15 09:00:35;;;;;;;4.08;1.30;;;;;;;18.54;100.00;100737.09;1432547;91;21375;-87
2023/09/15 09:03:03;;;;;;;1.52;1.42;;;;;;;18.61;100.00;100738.47;1425944;91;22314;-88
2023/09/15 09:05:31;;;;;;;6.95;1.90;;;;;;;18.65;100.00;100738.42;1424012;91;22299;-87
2023/09/15 09:07:59;;;;;;;3.55;1.40;;;;;;;18.70;100.00;100745.36;1423933;91;21426;-88
2023/09/15 09:10:26;;;;;;;6.92;1.50;;;;;;;18.71;100.00;100744.35;1426876;91;21478;-89
2023/09/15 09:12:52;;;;;;;7.60;1.40;;;;;;;18.72;100.00;100747.34;1431167;91;21537;-88
2023/09/15 09:15:21;;;;;;;2.92;1.50;;;;;;;18.81;100.00;100746.72;1421517;91;22368;-87
2023/09/15 09:17:47;;;;;;;7.30;1.90;;;;;;;18.85;100.00;100748.83;1430707;91;22343;-87
2023/09/15 09:20:26;;;;;;;8.75;1.75;;;;;;;18.86;100.00;100749.14;1428616;91;21657;-86
2023/09/15 09:22:54;;;;;;;2.47;1.30;;;;;;;18.85;100.00;100744.81;1425076;91;21732;-89
2023/09/15 09:25:33;;;;;;;4.30;1.37;;;;;;;18.84;100.00;100743.13;1415549;91;21578;-89
2023/09/15 09:27:58;;;;;;;2.27;1.30;;;;;;;18.88;100.00;100743.08;1431529;91;21577;-89
2023/09/15 09:30:29;;;;;;;2.20;1.42;;;;;;;18.92;100.00;100743.00;1404599;91;21501;-86
2023/09/15 09:32:56;;;;;;;1.32;0.80;;;;;;;18.94;100.00;100735.59;1426561;91;21516;-88
2023/09/15 09:35:23;;;;;;;1.77;1.27;;;;;;;18.96;100.00;100739.92;1431581;91;22248;-89
2023/09/15 09:37:52;;;;;;;2.17;1.12;;;;;;;19.00;100.00;100735.84;1428991;91;21419;-87
2023/09/15 09:40:21;;;;;;;6.15;1.60;;;;;;;19.03;100.00;100739.48;1432463;91;21338;-88
2023/09/15 09:42:54;;;;;;;3.87;1.35;;;;;;;19.06;100.00;100741.25;1429979;91;21352;-88
2023/09/15 09:45:17;;;;;;;1.42;1.30;;;;;;;19.03;100.00;100740.81;1430761;91;21925;-87
2023/09/15 09:47:44;;;;;;;1.35;1.17;;;;;;;19.05;100.00;100740.94;1431462;91;21538;-87
2023/09/15 09:50:12;;;;;;;2.42;1.40;;;;;;;19.10;100.00;100743.02;1426252;91;22388;-87
2023/09/15 09:52:40;;;;;;;4.67;1.20;;;;;;;19.15;100.00;100744.61;1434586;91;22374;-87
2023/09/15 09:55:10;;;;;;;4.62;1.00;;;;;;;19.22;100.00;100744.16;1435178;91;21353;-87
2023/09/15 09:57:40;;;;;;;3.30;1.57;;;;;;;19.26;100.00;100741.90;1416086;91;21531;-87
2023/09/15 10:00:18;;;;;;;2.90;1.00;;;;;;;19.24;100.00;100744.77;1431656;91;21574;-87
2023/09/15 10:02:42;;;;;;;0.82;0.72;;;;;;;19.25;100.00;100743.77;1430731;91;22522;-87
2023/09/15 10:05:09;;;;;;;4.40;1.10;;;;;;;19.22;100.00;100739.27;1427407;91;21523;-87
2023/09/15 10:07:36;;;;;;;5.30;1.17;;;;;;;19.19;100.00;100732.97;1425849;91;21418;-88
2023/09/15 10:10:06;;;;;;;1.52;0.93;;;;;;;19.25;100.00;100729.00;1435852;91;21516;-88
2023/09/15 10:12:33;;;;;;;1.98;1.22;;;;;;;19.31;100.00;100733.58;1425001;91;22011;-89
2023/09/15 10:14:59;;;;;;;1.92;1.05;;;;;;;19.28;100.00;100729.95;1422130;91;22484;-88
2023/09/15 10:17:27;;;;;;;7.65;1.25;;;;;;;19.27;100.00;100728.27;1424352;91;21474;-81
2023/09/15 10:19:56;;;;;;;1.75;0.90;;;;;;;19.26;100.00;100730.65;1432977;91;21585;-81
2023/09/15 10:22:22;;;;;;;1.20;1.10;;;;;;;19.29;100.00;100728.91;1405800;91;22358;-81
2023/09/15 10:24:58;;;;;;;3.83;1.10;;;;;;;19.34;100.00;100735.86;1427272;91;21353;-81
2023/09/15 10:27:27;;;;;;;4.10;1.10;;;;;;;19.39;100.00;100732.08;1434486;91;21427;-82
2023/09/15 10:29:55;;;;;;;4.83;1.15;;;;;;;19.43;100.00;100737.05;1427299;91;21345;-82
2023/09/15 10:32:22;;;;;;;2.77;1.50;;;;;;;19.43;100.00;100734.36;1422239;91;21382;-82
2023/09/15 10:34:49;;;;;;;2.05;1.07;;;;;;;19.46;100.00;100734.79;1425878;91;21627;-82
2023/09/15 10:37:15;;;;;;;3.27;1.57;;;;;;;19.50;100.00;100735.22;1428182;91;21426;-81
2023/09/15 10:39:42;;;;;;;1.10;0.62;;;;;;;19.54;100.00;100728.44;1418904;91;22381;-81
2023/09/15 10:42:15;;;;;;;5.12;1.00;;;;;;;19.59;100.00;100734.02;1425874;91;21928;-81
2023/09/15 10:44:42;;;;;;;3.58;1.40;;;;;;;19.69;100.00;100730.49;1428781;91;21375;-82
2023/09/15 10:47:20;;;;;;;2.15;0.90;;;;;;;19.76;100.00;100729.99;1424995;91;21406;-81
2023/09/15 10:49:53;;;;;;;4.60;1.20;;;;;;;19.79;100.00;100729.63;1425968;91;21905;-81
2023/09/15 10:52:36;;;;;;;4.58;1.15;;;;;;;19.89;100.00;100731.91;1420629;91;21450;-81
2023/09/15 10:55:03;;;;;;;2.02;0.90;;;;;;;19.89;100.00;100731.91;1421870;91;21632;-82
2023/09/15 10:57:35;;;;;;;1.95;1.20;;;;;;;19.95;100.00;100731.10;1424347;91;21581;-82
2023/09/15 11:00:09;;;;;;;4.08;1.00;;;;;;;19.99;100.00;100734.20;1429383;91;21367;-82
2023/09/15 11:02:35;;;;;;;1.50;1.27;;;;;;;19.99;100.00;100735.55;1426465;91;21478;-83
2023/09/15 11:05:08;;;;;;;2.05;1.20;;;;;;;20.00;100.00;100739.91;1425213;91;22510;-82
2023/09/15 11:07:36;;;;;;;2.75;1.52;;;;;;;20.02;100.00;100735.14;1427295;91;21405;-82
2023/09/15 11:10:04;;;;;;;5.00;0.80;;;;;;;20.02;100.00;100734.66;1429892;91;21493;-82
2023/09/15 11:12:30;;;;;;;5.25;1.30;;;;;;;20.05;100.00;100737.42;1408549;91;22380;-82
2023/09/15 11:15:01;;;;;;;3.58;0.90;;;;;;;20.05;100.00;100735.59;1429476;91;21419;-82
2023/09/15 11:17:30;;;;;;;;;;;;;;;20.10;100.00;100736.31;1431125;91;22255;-82
2023/09/15 11:19:59;;;;;;;4.10;1.00;;;;;;;20.10;100.00;100729.59;1424297;91;20393;-80
2023/09/15 11:22:26;;;;;;;1.92;1.02;;;;;;;20.11;100.00;100733.95;1432569;91;21456;-82
2023/09/15 11:24:52;;;;;;;6.00;1.02;;;;;;;20.09;100.00;100733.32;1426776;91;21337;-81